sensor_id;sensor_type;location;lat;lon;timestamp;pressure;altitude;pressure_sealevel;temperature;humidity
10832;BME280;5469;48.574;8.768;2022-11-14T00:00:57;64575.81;;;-144.83;100.00
10832;BME280;5469;48.574;8.768;2022-11-14T00:03:32;64575.81;;;-144.83;100.00
10832;BME280;5469;48.574;8.768;2022-11-14T00:06:09;64575.81;;;-144.83;100.00
10832;BME280;5469;48.574;8.768;2022-11-14T00:08:44;64575.81;;;-144.83;100.00
10832;BME280;5469;48.574;8.768;2022-11-14T00:11:19;64575.81;;;-144.83;100.00
10832;BME280;5469;48.574;8.768;2022-11-14T00:13:55;64575.81;;;-144.83;100.00
10832;BME280;5469;48.574;8.768;2022-11-14T00:16:30;64575.81;;;-144.83;100.00
10832;BME280;5469;48.574;8.768;2022-11-14T00:19:05;64575.81;;;-144.83;100.00
10832;BME280;5469;48.574;8.768;2022-11-14T00:21:41;64575.81;;;-144.83;100.00
10832;BME280;5469;48.574;8.768;2022-11-14T00:24:16;64575.81;;;-144.83;100.00
10832;BME280;5469;48.574;8.768;2022-11-14T00:26:51;64575.81;;;-144.83;100.00
10832;BME280;5469;48.574;8.768;2022-11-14T00:29:28;64575.81;;;-144.83;100.00
10832;BME280;5469;48.574;8.768;2022-11-14T00:32:03;64575.81;;;-144.83;100.00
10832;BME280;5469;48.574;8.768;2022-11-14T00:34:38;64575.81;;;-144.83;100.00
10832;BME280;5469;48.574;8.768;2022-11-14T00:37:13;64575.81;;;-144.83;100.00
10832;BME280;5469;48.574;8.768;2022-11-14T00:39:48;64575.81;;;-144.83;100.00
10832;BME280;5469;48.574;8.768;2022-11-14T00:42:23;64575.81;;;-144.83;100.00
10832;BME280;5469;48.574;8.768;2022-11-14T00:44:59;64575.81;;;-144.83;100.00
10832;BME280;5469;48.574;8.768;2022-11-14T00:47:34;64575.81;;;-144.83;100.00
10832;BME280;5469;48.574;8.768;2022-11-14T00:50:11;64575.81;;;-144.83;100.00
10832;BME280;5469;48.574;8.768;2022-11-14T00:52:46;64575.81;;;-144.83;100.00
10832;BME280;5469;48.574;8.768;2022-11-14T00:55:21;64575.81;;;-144.83;100.00
10832;BME280;5469;48.574;8.768;2022-11-14T00:57:56;64575.81;;;-144.83;100.00
10832;BME280;5469;48.574;8.768;2022-11-14T01:00:32;64575.81;;;-144.83;100.00
10832;BME280;5469;48.574;8.768;2022-11-14T01:03:08;64575.81;;;-144.83;100.00
10832;BME280;5469;48.574;8.768;2022-11-14T01:05:43;64575.81;;;-144.83;100.00
10832;BME280;5469;48.574;8.768;2022-11-14T01:08:20;64575.81;;;-144.83;100.00
10832;BME280;5469;48.574;8.768;2022-11-14T01:10:55;64575.81;;;-144.83;100.00
10832;BME280;5469;48.574;8.768;2022-11-14T01:13:32;64575.81;;;-144.83;100.00
10832;BME280;5469;48.574;8.768;2022-11-14T01:16:09;64575.81;;;-144.83;100.00
10832;BME280;5469;48.574;8.768;2022-11-14T01:18:46;64575.81;;;-144.83;100.00
10832;BME280;5469;48.574;8.768;2022-11-14T01:21:21;64575.81;;;-144.83;100.00
10832;BME280;5469;48.574;8.768;2022-11-14T01:23:56;64575.81;;;-144.83;100.00
10832;BME280;5469;48.574;8.768;2022-11-14T01:26:32;64575.81;;;-144.83;100.00
10832;BME280;5469;48.574;8.768;2022-11-14T01:29:07;94874.22;;;5.54;83.22
10832;BME280;5469;48.574;8.768;2022-11-14T01:31:43;94702.19;;;5.45;82.98
10832;BME280;5469;48.574;8.768;2022-11-14T01:34:18;94695.97;;;5.51;83.66
10832;BME280;5469;48.574;8.768;2022-11-14T01:36:53;94689.31;;;5.87;81.64
10832;BME280;5469;48.574;8.768;2022-11-14T01:39:28;94679.03;;;6.08;79.71
10832;BME280;5469;48.574;8.768;2022-11-14T01:42:03;94673.31;;;6.16;78.60
10832;BME280;5469;48.574;8.768;2022-11-14T01:44:42;94666.56;;;5.98;80.84
10832;BME280;5469;48.574;8.768;2022-11-14T01:47:21;94666.34;;;5.83;79.78
10832;BME280;5469;48.574;8.768;2022-11-14T01:50:00;94670.75;;;5.33;84.16
10832;BME280;5469;48.574;8.768;2022-11-14T01:52:37;94662.50;;;5.24;85.22
10832;BME280;5469;48.574;8.768;2022-11-14T01:55:14;94657.41;;;5.79;82.03
10832;BME280;5469;48.574;8.768;2022-11-14T01:57:51;94667.63;;;5.14;84.23
10832;BME280;5469;48.574;8.768;2022-11-14T02:00:26;94668.97;;;5.39;83.41
10832;BME280;5469;48.574;8.768;2022-11-14T02:03:03;94657.56;;;5.28;83.47
10832;BME280;5469;48.574;8.768;2022-11-14T02:05:39;94660.16;;;4.89;86.16
10832;BME280;5469;48.574;8.768;2022-11-14T02:08:16;94658.72;;;5.59;83.17
10832;BME280;5469;48.574;8.768;2022-11-14T02:10:51;94656.66;;;5.61;81.38
10832;BME280;5469;48.574;8.768;2022-11-14T02:13:26;94649.84;;;5.87;80.13
10832;BME280;5469;48.574;8.768;2022-11-14T02:16:01;94652.72;;;5.42;83.08
10832;BME280;5469;48.574;8.768;2022-11-14T02:18:38;94643.56;;;5.22;82.72
10832;BME280;5469;48.574;8.768;2022-11-14T02:21:14;94649.19;;;4.75;84.87
10832;BME280;5469;48.574;8.768;2022-11-14T02:23:49;94643.13;;;5.31;83.60
10832;BME280;5469;48.574;8.768;2022-11-14T02:26:24;94645.25;;;5.34;82.40
10832;BME280;5469;48.574;8.768;2022-11-14T02:28:59;94652.69;;;4.81;84.42
10832;BME280;5469;48.574;8.768;2022-11-14T02:31:38;94664.44;;;5.12;83.39
10832;BME280;5469;48.574;8.768;2022-11-14T02:34:13;94659.16;;;5.73;80.36
10832;BME280;5469;48.574;8.768;2022-11-14T02:36:54;94652.91;;;6.01;78.64
10832;BME280;5469;48.574;8.768;2022-11-14T02:39:29;94654.81;;;5.84;78.37
10832;BME280;5469;48.574;8.768;2022-11-14T02:42:04;94663.44;;;5.18;81.43
10832;BME280;5469;48.574;8.768;2022-11-14T02:44:39;94665.47;;;5.11;83.65
10832;BME280;5469;48.574;8.768;2022-11-14T02:47:14;94660.94;;;5.45;81.67
10832;BME280;5469;48.574;8.768;2022-11-14T02:49:49;94658.59;;;5.93;78.72
10832;BME280;5469;48.574;8.768;2022-11-14T02:52:26;94661.09;;;5.83;78.24
10832;BME280;5469;48.574;8.768;2022-11-14T02:55:01;94663.84;;;5.49;80.97
10832;BME280;5469;48.574;8.768;2022-11-14T02:57:36;94673.63;;;5.76;79.62
10832;BME280;5469;48.574;8.768;2022-11-14T03:00:12;94680.06;;;5.85;79.70
10832;BME280;5469;48.574;8.768;2022-11-14T03:02:47;94692.63;;;4.66;87.47
10832;BME280;5469;48.574;8.768;2022-11-14T03:05:22;94685.56;;;4.21;91.77
10832;BME280;5469;48.574;8.768;2022-11-14T03:07:59;94692.38;;;4.51;91.49
10832;BME280;5469;48.574;8.768;2022-11-14T03:10:34;94688.16;;;4.50;91.91
10832;BME280;5469;48.574;8.768;2022-11-14T03:13:09;94691.50;;;4.45;92.41
10832;BME280;5469;48.574;8.768;2022-11-14T03:15:45;94694.25;;;4.22;94.73
10832;BME280;5469;48.574;8.768;2022-11-14T03:18:21;94684.19;;;4.64;92.52
10832;BME280;5469;48.574;8.768;2022-11-14T03:20:55;94663.50;;;4.51;94.37
10832;BME280;5469;48.574;8.768;2022-11-14T03:23:32;94665.97;;;4.41;94.80
10832;BME280;5469;48.574;8.768;2022-11-14T03:26:09;94666.03;;;4.46;95.18
10832;BME280;5469;48.574;8.768;2022-11-14T03:28:45;94666.06;;;4.79;92.35
10832;BME280;5469;48.574;8.768;2022-11-14T03:31:21;94649.50;;;4.79;91.98
10832;BME280;5469;48.574;8.768;2022-11-14T03:33:56;94636.81;;;4.93;91.99
10832;BME280;5469;48.574;8.768;2022-11-14T03:36:30;94630.63;;;5.38;87.85
10832;BME280;5469;48.574;8.768;2022-11-14T03:39:07;94628.56;;;5.01;89.44
10832;BME280;5469;48.574;8.768;2022-11-14T03:41:42;94644.09;;;4.86;91.58
10832;BME280;5469;48.574;8.768;2022-11-14T03:44:17;94651.03;;;4.75;92.75
10832;BME280;5469;48.574;8.768;2022-11-14T03:46:52;94654.81;;;5.01;91.27
10832;BME280;5469;48.574;8.768;2022-11-14T03:49:27;94653.81;;;4.68;92.18
10832;BME280;5469;48.574;8.768;2022-11-14T03:52:02;94652.69;;;4.64;94.34
10832;BME280;5469;48.574;8.768;2022-11-14T03:54:38;94643.94;;;4.75;94.30
10832;BME280;5469;48.574;8.768;2022-11-14T03:57:13;94648.38;;;4.92;92.19
10832;BME280;5469;48.574;8.768;2022-11-14T03:59:48;94646.75;;;4.52;95.86
10832;BME280;5469;48.574;8.768;2022-11-14T04:02:23;94649.53;;;4.62;94.67
10832;BME280;5469;48.574;8.768;2022-11-14T04:04:58;94662.81;;;4.72;94.44
10832;BME280;5469;48.574;8.768;2022-11-14T04:07:33;94666.69;;;4.53;95.79
10832;BME280;5469;48.574;8.768;2022-11-14T04:10:10;94675.28;;;4.65;95.38
10832;BME280;5469;48.574;8.768;2022-11-14T04:12:48;94665.59;;;4.82;93.87
10832;BME280;5469;48.574;8.768;2022-11-14T04:15:23;94669.00;;;4.66;96.08
10832;BME280;5469;48.574;8.768;2022-11-14T04:17:58;94650.31;;;4.63;96.96
10832;BME280;5469;48.574;8.768;2022-11-14T04:20:34;94628.00;;;4.99;93.98
10832;BME280;5469;48.574;8.768;2022-11-14T04:23:08;94628.03;;;4.65;96.18
10832;BME280;5469;48.574;8.768;2022-11-14T04:25:46;94624.22;;;4.56;98.37
10832;BME280;5469;48.574;8.768;2022-11-14T04:28:22;94620.72;;;4.67;98.09
10832;BME280;5469;48.574;8.768;2022-11-14T04:30:56;94613.69;;;4.90;95.54
10832;BME280;5469;48.574;8.768;2022-11-14T04:33:32;94627.88;;;4.55;99.04
10832;BME280;5469;48.574;8.768;2022-11-14T04:36:08;94616.91;;;4.41;100.00
10832;BME280;5469;48.574;8.768;2022-11-14T04:38:44;94627.09;;;4.54;100.00
10832;BME280;5469;48.574;8.768;2022-11-14T04:41:20;94629.63;;;4.66;99.58
10832;BME280;5469;48.574;8.768;2022-11-14T04:43:55;94619.47;;;4.36;100.00
10832;BME280;5469;48.574;8.768;2022-11-14T04:46:30;94620.25;;;4.53;100.00
10832;BME280;5469;48.574;8.768;2022-11-14T04:49:05;94617.53;;;4.65;100.00
10832;BME280;5469;48.574;8.768;2022-11-14T04:51:40;94626.28;;;4.71;99.16
10832;BME280;5469;48.574;8.768;2022-11-14T04:54:15;94615.28;;;4.91;98.10
10832;BME280;5469;48.574;8.768;2022-11-14T04:56:52;94610.34;;;4.94;95.83
10832;BME280;5469;48.574;8.768;2022-11-14T04:59:27;94616.22;;;4.85;97.41
10832;BME280;5469;48.574;8.768;2022-11-14T05:02:02;94610.03;;;4.91;96.71
10832;BME280;5469;48.574;8.768;2022-11-14T05:04:36;94617.50;;;4.99;96.81
10832;BME280;5469;48.574;8.768;2022-11-14T05:07:11;94609.34;;;5.00;95.83
10832;BME280;5469;48.574;8.768;2022-11-14T05:09:46;94596.84;;;5.08;94.50
10832;BME280;5469;48.574;8.768;2022-11-14T05:12:23;94608.84;;;5.20;92.67
10832;BME280;5469;48.574;8.768;2022-11-14T05:14:58;94611.41;;;5.15;93.34
10832;BME280;5469;48.574;8.768;2022-11-14T05:17:33;94607.84;;;5.04;93.81
10832;BME280;5469;48.574;8.768;2022-11-14T05:20:09;94605.00;;;5.28;91.57
10832;BME280;5469;48.574;8.768;2022-11-14T05:22:44;94597.56;;;5.03;92.96
10832;BME280;5469;48.574;8.768;2022-11-14T05:25:19;94600.75;;;5.05;94.21
10832;BME280;5469;48.574;8.768;2022-11-14T05:27:56;94599.00;;;5.11;93.61
10832;BME280;5469;48.574;8.768;2022-11-14T05:30:31;94603.31;;;5.00;94.02
10832;BME280;5469;48.574;8.768;2022-11-14T05:33:06;94595.00;;;5.08;92.90
10832;BME280;5469;48.574;8.768;2022-11-14T05:35:41;94600.53;;;5.29;90.03
10832;BME280;5469;48.574;8.768;2022-11-14T05:38:16;94604.63;;;5.19;91.50
10832;BME280;5469;48.574;8.768;2022-11-14T05:40:51;94599.44;;;5.68;85.64
10832;BME280;5469;48.574;8.768;2022-11-14T05:43:30;94593.84;;;5.65;84.66
10832;BME280;5469;48.574;8.768;2022-11-14T05:46:07;94587.31;;;5.67;84.37
10832;BME280;5469;48.574;8.768;2022-11-14T05:48:44;94593.34;;;5.68;84.89
10832;BME280;5469;48.574;8.768;2022-11-14T05:51:18;94578.28;;;5.58;85.22
10832;BME280;5469;48.574;8.768;2022-11-14T05:53:53;94592.56;;;5.67;84.38
10832;BME280;5469;48.574;8.768;2022-11-14T05:56:28;94589.22;;;5.28;88.57
10832;BME280;5469;48.574;8.768;2022-11-14T05:59:05;94598.34;;;5.20;89.27
10832;BME280;5469;48.574;8.768;2022-11-14T06:01:40;94600.19;;;4.81;92.04
10832;BME280;5469;48.574;8.768;2022-11-14T06:04:15;94599.00;;;5.11;91.29
10832;BME280;5469;48.574;8.768;2022-11-14T06:06:50;94611.41;;;5.15;89.65
10832;BME280;5469;48.574;8.768;2022-11-14T06:09:25;94623.38;;;5.06;90.57
10832;BME280;5469;48.574;8.768;2022-11-14T06:12:00;94617.50;;;4.99;90.72
10832;BME280;5469;48.574;8.768;2022-11-14T06:14:39;94624.13;;;5.23;89.31
10832;BME280;5469;48.574;8.768;2022-11-14T06:17:14;94634.34;;;5.03;90.89
10832;BME280;5469;48.574;8.768;2022-11-14T06:19:49;94630.75;;;4.70;94.89
10832;BME280;5469;48.574;8.768;2022-11-14T06:22:24;94641.78;;;4.89;93.65
10832;BME280;5469;48.574;8.768;2022-11-14T06:25:01;94626.44;;;4.81;93.71
10832;BME280;5469;48.574;8.768;2022-11-14T06:27:36;94622.75;;;4.99;92.23
10832;BME280;5469;48.574;8.768;2022-11-14T06:30:14;94611.88;;;5.12;89.53
10832;BME280;5469;48.574;8.768;2022-11-14T06:32:49;94634.03;;;5.16;89.47
10832;BME280;5469;48.574;8.768;2022-11-14T06:35:24;94615.97;;;5.03;91.84
10832;BME280;5469;48.574;8.768;2022-11-14T06:38:00;94604.44;;;5.04;92.93
10832;BME280;5469;48.574;8.768;2022-11-14T06:40:35;94623.97;;;5.13;93.69
10832;BME280;5469;48.574;8.768;2022-11-14T06:43:10;94634.03;;;4.99;95.19
10832;BME280;5469;48.574;8.768;2022-11-14T06:45:46;94628.00;;;4.99;95.95
10832;BME280;5469;48.574;8.768;2022-11-14T06:48:22;94633.97;;;5.11;95.01
10832;BME280;5469;48.574;8.768;2022-11-14T06:50:59;94626.31;;;5.32;93.10
10832;BME280;5469;48.574;8.768;2022-11-14T06:53:36;94626.50;;;5.25;94.00
10832;BME280;5469;48.574;8.768;2022-11-14T06:56:13;94631.47;;;5.21;94.58
10832;BME280;5469;48.574;8.768;2022-11-14T06:58:49;94622.16;;;5.36;93.85
10832;BME280;5469;48.574;8.768;2022-11-14T07:01:26;94624.31;;;5.39;94.77
10832;BME280;5469;48.574;8.768;2022-11-14T07:04:01;94625.09;;;5.61;92.06
10832;BME280;5469;48.574;8.768;2022-11-14T07:06:36;94624.94;;;5.46;95.28
10832;BME280;5469;48.574;8.768;2022-11-14T07:09:12;94621.56;;;5.51;94.29
10832;BME280;5469;48.574;8.768;2022-11-14T07:11:47;94625.59;;;5.58;94.75
10832;BME280;5469;48.574;8.768;2022-11-14T07:14:22;94631.44;;;5.65;94.78
10832;BME280;5469;48.574;8.768;2022-11-14T07:16:58;94626.25;;;5.70;95.70
10832;BME280;5469;48.574;8.768;2022-11-14T07:19:33;94630.53;;;5.77;94.83
10832;BME280;5469;48.574;8.768;2022-11-14T07:22:08;94616.94;;;5.85;94.53
10832;BME280;5469;48.574;8.768;2022-11-14T07:24:43;94638.78;;;6.07;91.84
10832;BME280;5469;48.574;8.768;2022-11-14T07:27:18;94641.75;;;6.16;92.94
10832;BME280;5469;48.574;8.768;2022-11-14T07:29:53;94633.75;;;6.06;93.94
10832;BME280;5469;48.574;8.768;2022-11-14T07:32:30;94644.63;;;6.15;94.15
10832;BME280;5469;48.574;8.768;2022-11-14T07:35:05;94638.63;;;6.19;94.85
10832;BME280;5469;48.574;8.768;2022-11-14T07:37:40;94649.06;;;6.36;93.47
10832;BME280;5469;48.574;8.768;2022-11-14T07:40:16;94652.75;;;6.40;95.00
10832;BME280;5469;48.574;8.768;2022-11-14T07:42:51;94655.69;;;6.44;95.99
10832;BME280;5469;48.574;8.768;2022-11-14T07:45:31;94658.19;;;6.61;94.67
10832;BME280;5469;48.574;8.768;2022-11-14T07:48:08;94656.13;;;6.63;94.81
10832;BME280;5469;48.574;8.768;2022-11-14T07:50:44;94656.78;;;6.80;95.56
10832;BME280;5469;48.574;8.768;2022-11-14T07:53:20;94662.13;;;6.90;94.75
10832;BME280;5469;48.574;8.768;2022-11-14T07:56:00;94662.16;;;6.95;95.16
10832;BME280;5469;48.574;8.768;2022-11-14T07:58:36;94660.44;;;7.16;94.12
10832;BME280;5469;48.574;8.768;2022-11-14T08:01:13;94657.88;;;7.27;93.97
10832;BME280;5469;48.574;8.768;2022-11-14T08:03:49;94652.91;;;7.35;92.66
10832;BME280;5469;48.574;8.768;2022-11-14T08:06:24;94652.16;;;7.45;92.74
10832;BME280;5469;48.574;8.768;2022-11-14T08:09:00;94658.25;;;7.51;93.18
10832;BME280;5469;48.574;8.768;2022-11-14T08:11:34;94661.94;;;7.55;93.49
10832;BME280;5469;48.574;8.768;2022-11-14T08:14:22;94652.44;;;7.49;92.23
10832;BME280;5469;48.574;8.768;2022-11-14T08:16:57;94659.34;;;7.60;93.15
10832;BME280;5469;48.574;8.768;2022-11-14T08:19:37;94662.78;;;7.60;92.64
10832;BME280;5469;48.574;8.768;2022-11-14T08:22:12;94650.41;;;7.61;91.99
10832;BME280;5469;48.574;8.768;2022-11-14T08:24:46;94668.38;;;7.69;92.63
10832;BME280;5469;48.574;8.768;2022-11-14T08:27:21;94652.75;;;7.62;92.40
10832;BME280;5469;48.574;8.768;2022-11-14T08:29:56;94658.31;;;7.61;92.63
10832;BME280;5469;48.574;8.768;2022-11-14T08:32:32;94660.69;;;7.68;93.77
10832;BME280;5469;48.574;8.768;2022-11-14T08:35:09;94663.34;;;7.73;93.85
10832;BME280;5469;48.574;8.768;2022-11-14T08:37:44;94664.16;;;7.73;92.71
10832;BME280;5469;48.574;8.768;2022-11-14T08:40:19;94656.28;;;7.78;95.74
10832;BME280;5469;48.574;8.768;2022-11-14T08:42:59;94655.75;;;7.81;95.05
10832;BME280;5469;48.574;8.768;2022-11-14T08:45:35;94658.41;;;7.86;96.62
10832;BME280;5469;48.574;8.768;2022-11-14T08:48:10;94656.53;;;7.82;94.98
10832;BME280;5469;48.574;8.768;2022-11-14T08:50:46;94656.03;;;7.85;98.14
10832;BME280;5469;48.574;8.768;2022-11-14T08:53:21;94654.19;;;7.91;98.02
10832;BME280;5469;48.574;8.768;2022-11-14T08:55:56;94657.63;;;7.91;97.46
10832;BME280;5469;48.574;8.768;2022-11-14T08:58:32;94655.28;;;7.95;98.31
10832;BME280;5469;48.574;8.768;2022-11-14T09:01:08;94657.16;;;8.09;96.58
10832;BME280;5469;48.574;8.768;2022-11-14T09:03:44;94655.56;;;8.08;96.61
10832;BME280;5469;48.574;8.768;2022-11-14T09:06:20;94651.06;;;8.09;94.05
10832;BME280;5469;48.574;8.768;2022-11-14T09:08:55;94647.41;;;8.20;94.28
10832;BME280;5469;48.574;8.768;2022-11-14T09:11:30;94648.47;;;8.35;94.27
10832;BME280;5469;48.574;8.768;2022-11-14T09:14:05;94643.75;;;8.37;94.41
10832;BME280;5469;48.574;8.768;2022-11-14T09:16:40;94652.72;;;8.25;94.62
10832;BME280;5469;48.574;8.768;2022-11-14T09:19:15;94654.34;;;8.42;96.04
10832;BME280;5469;48.574;8.768;2022-11-14T09:21:51;94653.00;;;8.39;95.97
10832;BME280;5469;48.574;8.768;2022-11-14T09:24:26;94647.22;;;8.47;96.87
10832;BME280;5469;48.574;8.768;2022-11-14T09:27:01;94651.69;;;8.47;97.35
10832;BME280;5469;48.574;8.768;2022-11-14T09:29:36;94644.56;;;8.47;95.77
10832;BME280;5469;48.574;8.768;2022-11-14T09:32:11;94666.00;;;8.56;96.67
10832;BME280;5469;48.574;8.768;2022-11-14T09:34:46;94665.44;;;8.54;95.52
10832;BME280;5469;48.574;8.768;2022-11-14T09:37:23;94654.34;;;8.52;94.35
10832;BME280;5469;48.574;8.768;2022-11-14T09:39:58;94656.75;;;8.53;94.42
10832;BME280;5469;48.574;8.768;2022-11-14T09:42:53;94649.06;;;8.62;94.95
10832;BME280;5469;48.574;8.768;2022-11-14T09:45:32;94658.56;;;8.79;93.97
10832;BME280;5469;48.574;8.768;2022-11-14T09:48:14;94667.03;;;8.86;94.98
10832;BME280;5469;48.574;8.768;2022-11-14T09:50:58;94664.94;;;8.83;94.95
10832;BME280;5469;48.574;8.768;2022-11-14T09:53:41;94672.31;;;8.91;94.28
10832;BME280;5469;48.574;8.768;2022-11-14T09:56:22;94665.47;;;8.90;94.12
10832;BME280;5469;48.574;8.768;2022-11-14T09:58:58;94662.78;;;9.05;94.34
10832;BME280;5469;48.574;8.768;2022-11-14T10:01:39;94651.19;;;8.96;91.27
10832;BME280;5469;48.574;8.768;2022-11-14T10:04:27;94670.22;;;9.13;92.72
10832;BME280;5469;48.574;8.768;2022-11-14T10:07:18;94667.03;;;8.96;93.49
10832;BME280;5469;48.574;8.768;2022-11-14T10:10:05;94662.53;;;9.02;93.00
10832;BME280;5469;48.574;8.768;2022-11-14T10:12:51;94654.84;;;9.10;91.51
10832;BME280;5469;48.574;8.768;2022-11-14T10:15:39;94685.53;;;9.06;92.30
10832;BME280;5469;48.574;8.768;2022-11-14T10:18:34;94662.25;;;9.29;92.24
10832;BME280;5469;48.574;8.768;2022-11-14T10:21:33;94665.94;;;9.28;91.08
10832;BME280;5469;48.574;8.768;2022-11-14T10:24:23;94654.56;;;9.27;91.03
10832;BME280;5469;48.574;8.768;2022-11-14T10:27:05;94653.25;;;9.19;91.30
10832;BME280;5469;48.574;8.768;2022-11-14T10:35:49;94661.16;;;9.35;88.85
10832;BME280;5469;48.574;8.768;2022-11-14T10:38:31;94657.16;;;9.53;89.02
10832;BME280;5469;48.574;8.768;2022-11-14T10:41:09;94660.22;;;9.75;87.96
10832;BME280;5469;48.574;8.768;2022-11-14T10:43:47;94645.97;;;9.76;87.23
10832;BME280;5469;48.574;8.768;2022-11-14T10:46:25;94645.22;;;9.66;87.53
10832;BME280;5469;48.574;8.768;2022-11-14T10:49:10;94650.94;;;9.83;87.06
10832;BME280;5469;48.574;8.768;2022-11-14T10:51:52;94659.44;;;9.75;87.00
10832;BME280;5469;48.574;8.768;2022-11-14T10:54:32;94671.41;;;9.62;87.93
10832;BME280;5469;48.574;8.768;2022-11-14T10:57:17;94667.91;;;9.77;87.36
10832;BME280;5469;48.574;8.768;2022-11-14T10:59:54;94657.91;;;9.63;86.99
10832;BME280;5469;48.574;8.768;2022-11-14T11:02:46;94654.69;;;9.72;86.21
10832;BME280;5469;48.574;8.768;2022-11-14T11:05:26;94649.41;;;9.72;85.85
10832;BME280;5469;48.574;8.768;2022-11-14T11:08:02;94649.97;;;9.69;86.36
10832;BME280;5469;48.574;8.768;2022-11-14T11:11:02;94643.13;;;9.57;86.43
10832;BME280;5469;48.574;8.768;2022-11-14T11:13:57;94640.47;;;9.62;85.18
10832;BME280;5469;48.574;8.768;2022-11-14T11:16:34;94657.06;;;9.78;84.98
10832;BME280;5469;48.574;8.768;2022-11-14T11:19:24;94652.06;;;9.67;85.28
10832;BME280;5469;48.574;8.768;2022-11-14T11:21:59;94665.84;;;9.69;85.41
10832;BME280;5469;48.574;8.768;2022-11-14T11:24:36;94662.13;;;9.70;84.96
10832;BME280;5469;48.574;8.768;2022-11-14T11:27:19;94645.19;;;9.71;85.06
10832;BME280;5469;48.574;8.768;2022-11-14T11:30:02;94646.50;;;9.73;85.46
10832;BME280;5469;48.574;8.768;2022-11-14T11:32:42;94651.00;;;9.73;84.87
10832;BME280;5469;48.574;8.768;2022-11-14T11:35:19;94652.53;;;9.84;85.61
10832;BME280;5469;48.574;8.768;2022-11-14T11:37:57;94638.75;;;9.92;84.35
10832;BME280;5469;48.574;8.768;2022-11-14T11:40:35;94643.53;;;9.85;85.55
10832;BME280;5469;48.574;8.768;2022-11-14T11:43:14;94635.53;;;9.95;84.51
10832;BME280;5469;48.574;8.768;2022-11-14T11:45:54;94635.47;;;10.11;84.06
10832;BME280;5469;48.574;8.768;2022-11-14T11:48:36;94639.75;;;10.01;84.63
10832;BME280;5469;48.574;8.768;2022-11-14T11:51:15;94643.91;;;10.18;84.65
10832;BME280;5469;48.574;8.768;2022-11-14T11:53:59;94649.00;;;10.54;83.06
10832;BME280;5469;48.574;8.768;2022-11-14T11:56:39;94646.34;;;10.59;81.93
10832;BME280;5469;48.574;8.768;2022-11-14T11:59:20;94651.94;;;10.86;80.22
10832;BME280;5469;48.574;8.768;2022-11-14T12:02:00;94635.66;;;10.98;79.84
10832;BME280;5469;48.574;8.768;2022-11-14T12:04:37;94636.00;;;11.21;79.37
10832;BME280;5469;48.574;8.768;2022-11-14T12:07:16;94625.41;;;11.45;80.08
10832;BME280;5469;48.574;8.768;2022-11-14T12:09:54;94627.16;;;13.66;70.92
10832;BME280;5469;48.574;8.768;2022-11-14T12:12:44;94639.88;;;12.95;71.79
10832;BME280;5469;48.574;8.768;2022-11-14T12:15:30;94620.16;;;13.29;68.18
10832;BME280;5469;48.574;8.768;2022-11-14T12:18:25;94624.31;;;14.40;66.13
10832;BME280;5469;48.574;8.768;2022-11-14T12:21:17;94612.69;;;15.26;64.35
10832;BME280;5469;48.574;8.768;2022-11-14T12:24:17;94620.00;;;14.90;61.58
10832;BME280;5469;48.574;8.768;2022-11-14T12:27:05;94622.56;;;14.95;63.60
10832;BME280;5469;48.574;8.768;2022-11-14T12:29:56;94617.41;;;15.29;61.14
10832;BME280;5469;48.574;8.768;2022-11-14T12:32:35;94616.06;;;14.87;62.81
10832;BME280;5469;48.574;8.768;2022-11-14T12:35:16;94623.44;;;13.81;65.76
10832;BME280;5469;48.574;8.768;2022-11-14T12:37:55;94627.97;;;13.39;66.73
10832;BME280;5469;48.574;8.768;2022-11-14T12:40:34;94621.75;;;12.97;67.66
10832;BME280;5469;48.574;8.768;2022-11-14T12:43:27;94627.69;;;13.22;67.50
10832;BME280;5469;48.574;8.768;2022-11-14T12:46:05;94620.63;;;12.33;71.29
10832;BME280;5469;48.574;8.768;2022-11-14T12:48:43;94627.06;;;12.45;70.81
10832;BME280;5469;48.574;8.768;2022-11-14T12:51:50;94629.00;;;12.40;71.60
10832;BME280;5469;48.574;8.768;2022-11-14T12:54:46;94626.34;;;12.59;71.68
10832;BME280;5469;48.574;8.768;2022-11-14T12:57:27;94620.31;;;11.96;73.13
10832;BME280;5469;48.574;8.768;2022-11-14T13:00:22;94622.97;;;12.15;73.51
10832;BME280;5469;48.574;8.768;2022-11-14T13:03:10;94613.91;;;12.16;72.52
10832;BME280;5469;48.574;8.768;2022-11-14T13:05:56;94619.09;;;11.89;73.08
10832;BME280;5469;48.574;8.768;2022-11-14T13:08:50;94606.69;;;12.74;71.23
10832;BME280;5469;48.574;8.768;2022-11-14T13:11:40;94608.03;;;13.50;68.23
10832;BME280;5469;48.574;8.768;2022-11-14T13:14:47;94607.97;;;14.19;65.88
10832;BME280;5469;48.574;8.768;2022-11-14T13:17:40;94578.31;;;15.73;62.38
10832;BME280;5469;48.574;8.768;2022-11-14T13:20:35;94605.16;;;16.43;60.04
10832;BME280;5469;48.574;8.768;2022-11-14T13:23:55;94613.59;;;16.10;57.68
10832;BME280;5469;48.574;8.768;2022-11-14T13:26:38;94619.50;;;15.72;59.55
10832;BME280;5469;48.574;8.768;2022-11-14T13:35:55;94618.88;;;13.82;63.58
10832;BME280;5469;48.574;8.768;2022-11-14T13:45:28;94610.44;;;12.73;68.28
10832;BME280;5469;48.574;8.768;2022-11-14T13:48:35;94614.88;;;12.26;69.54
10832;BME280;5469;48.574;8.768;2022-11-14T13:51:22;94607.19;;;12.43;69.79
10832;BME280;5469;48.574;8.768;2022-11-14T13:53:59;94608.09;;;12.52;69.07
10832;BME280;5469;48.574;8.768;2022-11-14T13:56:37;94612.25;;;12.91;67.99
10832;BME280;5469;48.574;8.768;2022-11-14T13:59:47;94606.66;;;13.67;64.90
10832;BME280;5469;48.574;8.768;2022-11-14T14:05:39;94607.72;;;14.43;63.24
10832;BME280;5469;48.574;8.768;2022-11-14T14:08:27;94608.47;;;14.08;63.47
10832;BME280;5469;48.574;8.768;2022-11-14T14:11:19;94607.19;;;14.19;62.88
10832;BME280;5469;48.574;8.768;2022-11-14T14:14:05;94617.50;;;13.29;65.50
10832;BME280;5469;48.574;8.768;2022-11-14T14:16:54;94616.41;;;12.64;67.85
10832;BME280;5469;48.574;8.768;2022-11-14T14:19:38;94607.22;;;12.57;67.88
10832;BME280;5469;48.574;8.768;2022-11-14T14:22:21;94612.13;;;12.31;69.70
10832;BME280;5469;48.574;8.768;2022-11-14T14:25:04;94607.50;;;12.55;69.16
10832;BME280;5469;48.574;8.768;2022-11-14T14:27:51;94622.25;;;12.29;69.91
10832;BME280;5469;48.574;8.768;2022-11-14T14:30:30;94621.09;;;11.97;70.70
10832;BME280;5469;48.574;8.768;2022-11-14T14:33:13;94630.25;;;11.86;71.29
10832;BME280;5469;48.574;8.768;2022-11-14T14:35:53;94628.44;;;11.81;72.11
10832;BME280;5469;48.574;8.768;2022-11-14T14:38:28;94623.00;;;11.67;72.71